Strona główna
METAR-TAF:

METAR-TAF

Lotnisko :

Groote Eylandt, Australia

Szerokość geograficzna: 13-58-30S, Długość geograficzna: 136-27-36E, wysokość: 16 m

Aktualna obserwacja pogody

Raport powstał 1 godzina i 2 minut temu, godzina 08:00 UTC
Wiatr 7 kt od południowo-południowy wschód
Temperatura 24°C
Wilgotność 69%
Ciśnienie 1015 hPa
Widzialność 10 km lub więcej

METAR: YGTE 040800Z AUTO 15007KT 9999 // NCD 24/18 Q1015

czas: 18:32 (09:02 UTC)


TAF: brakujący

Obserwacja i prognoza pogody dla ponad 4000 lotnisk (raport METAR i TAF).

Dostępne stacje oznaczono żółtymi i czerwonymi punktami na mapie.

Najedź kursorem aby zobaczyć nazwę stacji.

Kliknij aby zobaczyć obserwacje i prognozy pogody.

Aby zmienić mapę: kliknij na zielony przycisk z czarnym krzyżykiem, aby powiększyć; na zielony przycisk z myślnikiem, aby pomniejszyć; na zielone strzałki, aby przejść do map sąsiednich.


METAR-TAF: